createdAt,value
2022-11-17T00:00:12.524Z,8.18
2022-11-17T00:01:12.528Z,8.19
2022-11-17T00:02:12.497Z,8.19
2022-11-17T00:03:12.462Z,8.19
2022-11-17T00:04:12.452Z,8.19
2022-11-17T00:05:12.471Z,8.18
2022-11-17T00:06:12.452Z,8.15
2022-11-17T00:07:12.548Z,8.15
2022-11-17T00:08:12.409Z,8.11
2022-11-17T00:09:12.384Z,8.11
2022-11-17T00:10:12.388Z,8.10
2022-11-17T00:11:12.411Z,8.07
2022-11-17T00:12:12.343Z,8.07
2022-11-17T00:13:12.345Z,8.02
2022-11-17T00:14:12.366Z,8.04
2022-11-17T00:15:12.313Z,8.05
2022-11-17T00:16:12.321Z,8.04
2022-11-17T00:17:12.350Z,8.04
2022-11-17T00:18:12.272Z,8.02
2022-11-17T00:19:12.263Z,8.01
2022-11-17T00:20:12.288Z,8.02
2022-11-17T00:21:12.256Z,8.01
2022-11-17T00:22:12.237Z,8.01
2022-11-17T00:23:12.222Z,8.01
2022-11-17T00:24:12.212Z,8.01
2022-11-17T00:25:12.218Z,8.04
2022-11-17T00:26:12.220Z,8.05
2022-11-17T00:27:12.194Z,8.10
2022-11-17T00:28:12.168Z,8.11
2022-11-17T00:29:12.170Z,8.11
2022-11-17T00:30:12.150Z,8.12
2022-11-17T00:31:12.168Z,8.12
2022-11-17T00:32:12.126Z,8.16
2022-11-17T00:33:12.110Z,8.16
2022-11-17T00:34:12.106Z,8.15
2022-11-17T00:35:12.093Z,8.12
2022-11-17T00:36:12.091Z,8.10
2022-11-17T00:37:12.107Z,8.10
2022-11-17T00:38:12.057Z,8.11
2022-11-17T00:39:12.027Z,8.11
2022-11-17T00:40:12.008Z,8.15
2022-11-17T00:41:12.050Z,8.16
2022-11-17T00:42:12.024Z,8.16
2022-11-17T00:43:12.021Z,8.18
2022-11-17T00:44:11.968Z,8.19
2022-11-17T00:45:11.957Z,8.18
2022-11-17T00:46:11.958Z,8.16
2022-11-17T00:47:11.960Z,8.16
2022-11-17T00:48:11.943Z,8.15
2022-11-17T00:49:11.938Z,8.11
2022-11-17T00:50:11.937Z,8.11
2022-11-17T00:51:11.899Z,8.10
2022-11-17T00:52:11.899Z,8.08
2022-11-17T00:53:11.885Z,8.05
2022-11-17T00:54:11.896Z,8.02
2022-11-17T00:55:11.952Z,8.01
2022-11-17T00:56:11.842Z,8.01
2022-11-17T00:57:11.829Z,8.02
2022-11-17T00:58:11.822Z,8.02
2022-11-17T00:59:11.827Z,8.02
2022-11-17T01:00:11.826Z,8.05
2022-11-17T01:01:11.814Z,8.05
2022-11-17T01:02:11.764Z,8.07
2022-11-17T01:03:11.743Z,8.08
2022-11-17T01:04:11.755Z,8.08
2022-11-17T01:05:11.775Z,8.10
2022-11-17T01:06:11.704Z,8.10
2022-11-17T01:07:11.781Z,8.08
2022-11-17T01:08:11.695Z,8.10
2022-11-17T01:09:11.676Z,8.10
2022-11-17T01:10:11.664Z,8.10
2022-11-17T01:11:11.688Z,8.10
2022-11-17T01:12:11.674Z,8.08
2022-11-17T01:13:11.668Z,8.08
2022-11-17T01:14:11.629Z,8.07
2022-11-17T01:15:11.626Z,8.08
2022-11-17T01:16:11.639Z,8.10
2022-11-17T01:17:11.609Z,8.07
2022-11-17T01:18:11.602Z,8.08
2022-11-17T01:19:11.557Z,8.07
2022-11-17T01:20:11.562Z,8.08
2022-11-17T01:21:11.560Z,8.10
2022-11-17T01:22:11.592Z,8.10
2022-11-17T01:23:11.549Z,8.05
2022-11-17T01:24:11.518Z,8.02
2022-11-17T01:25:11.502Z,8.01
2022-11-17T01:26:11.489Z,8.01
2022-11-17T01:27:11.504Z,8.00
2022-11-17T01:28:11.499Z,8.00
2022-11-17T01:29:11.439Z,7.93
2022-11-17T01:30:11.466Z,7.90
2022-11-17T01:31:11.433Z,7.87
2022-11-17T01:32:11.413Z,7.80
2022-11-17T01:33:11.410Z,7.77
2022-11-17T01:34:11.441Z,7.75
2022-11-17T01:35:11.379Z,7.75
2022-11-17T01:36:11.414Z,7.79
2022-11-17T01:37:11.359Z,7.77
2022-11-17T01:38:11.353Z,7.79
2022-11-17T01:39:11.332Z,7.74
2022-11-17T01:40:11.312Z,7.77
2022-11-17T01:41:11.345Z,7.77
2022-11-17T01:42:11.322Z,7.77
2022-11-17T01:43:11.274Z,7.77
2022-11-17T01:44:11.280Z,7.79
2022-11-17T01:45:11.272Z,7.82
2022-11-17T01:46:11.274Z,7.82
2022-11-17T01:47:11.288Z,7.82
2022-11-17T01:48:11.254Z,7.82
2022-11-17T01:49:11.226Z,7.83
2022-11-17T01:50:11.226Z,7.83
2022-11-17T01:51:11.185Z,7.85
2022-11-17T01:52:11.218Z,7.85
2022-11-17T01:53:11.219Z,7.82
2022-11-17T01:54:11.166Z,7.77
2022-11-17T01:55:11.181Z,7.74
2022-11-17T01:56:11.142Z,7.71
2022-11-17T01:57:11.134Z,7.74
2022-11-17T01:58:11.126Z,7.71
2022-11-17T01:59:11.096Z,7.68
2022-11-17T02:00:11.132Z,7.68
2022-11-17T02:01:11.129Z,7.69
2022-11-17T02:02:11.101Z,7.69
2022-11-17T02:03:11.058Z,7.69
2022-11-17T02:04:11.049Z,7.69
2022-11-17T02:05:11.019Z,7.72
2022-11-17T02:06:11.037Z,7.68
2022-11-17T02:07:11.099Z,7.64
2022-11-17T02:08:10.989Z,7.60
2022-11-17T02:09:10.989Z,7.55
2022-11-17T02:10:11.024Z,7.48
2022-11-17T02:11:10.989Z,7.46
2022-11-17T02:12:10.982Z,7.48
2022-11-17T02:13:10.945Z,7.46
2022-11-17T02:14:10.917Z,7.45
2022-11-17T02:15:10.923Z,7.45
2022-11-17T02:16:10.910Z,7.45
2022-11-17T02:17:14.302Z,7.46
2022-11-17T02:18:10.860Z,7.49
2022-11-17T02:19:10.883Z,7.45
2022-11-17T02:20:10.870Z,7.43
2022-11-17T02:21:10.857Z,7.40
2022-11-17T02:22:10.850Z,7.37
2022-11-17T02:23:10.856Z,7.39
2022-11-17T02:24:10.812Z,7.40
2022-11-17T02:25:10.785Z,7.37
2022-11-17T02:26:10.797Z,7.42
2022-11-17T02:27:10.766Z,7.42
2022-11-17T02:28:10.815Z,7.43
2022-11-17T02:29:10.756Z,7.46
2022-11-17T02:30:10.732Z,7.49
2022-11-17T02:31:10.756Z,7.52
2022-11-17T02:32:10.702Z,7.49
2022-11-17T02:33:10.734Z,7.49
2022-11-17T02:34:10.717Z,7.48
2022-11-17T02:35:10.772Z,7.48
2022-11-17T02:36:10.694Z,7.46
2022-11-17T02:37:10.660Z,7.48
2022-11-17T02:38:10.634Z,7.49
2022-11-17T02:39:10.636Z,7.49
2022-11-17T02:40:10.604Z,7.49
2022-11-17T02:41:10.668Z,7.48
2022-11-17T02:42:10.602Z,7.49
2022-11-17T02:43:10.574Z,7.50
2022-11-17T02:44:10.583Z,7.52
2022-11-17T02:45:10.568Z,7.53
2022-11-17T02:46:10.607Z,7.53
2022-11-17T02:47:10.545Z,7.57
2022-11-17T02:48:10.523Z,7.58
2022-11-17T02:49:10.519Z,7.60
2022-11-17T02:50:10.554Z,7.60
2022-11-17T02:51:10.508Z,7.58
2022-11-17T02:52:10.511Z,7.53
2022-11-17T02:53:10.480Z,7.49
2022-11-17T02:54:10.448Z,7.50
2022-11-17T02:55:10.451Z,7.52
2022-11-17T02:56:10.431Z,7.53
2022-11-17T02:57:10.482Z,7.55
2022-11-17T02:58:10.410Z,7.58
2022-11-17T02:59:10.402Z,7.63
2022-11-17T03:00:10.398Z,7.68
2022-11-17T03:01:10.413Z,7.69
2022-11-17T03:02:10.402Z,7.72
2022-11-17T03:03:10.410Z,7.74
2022-11-17T03:04:10.329Z,7.75
2022-11-17T03:05:10.332Z,7.77
2022-11-17T03:06:10.330Z,7.79
2022-11-17T03:07:10.394Z,7.79
2022-11-17T03:08:10.286Z,7.77
2022-11-17T03:09:10.300Z,7.77
2022-11-17T03:10:10.298Z,7.79
2022-11-17T03:11:10.281Z,7.80
2022-11-17T03:12:10.254Z,7.82
2022-11-17T03:13:10.246Z,7.83
2022-11-17T03:14:10.267Z,7.83
2022-11-17T03:15:10.268Z,7.86
2022-11-17T03:16:10.233Z,7.86
2022-11-17T03:17:10.211Z,7.87
2022-11-17T03:18:10.195Z,7.86
2022-11-17T03:19:10.159Z,7.86
2022-11-17T03:20:10.155Z,7.83
2022-11-17T03:21:10.202Z,7.82
2022-11-17T03:22:10.122Z,7.82
2022-11-17T03:23:10.112Z,7.80
2022-11-17T03:24:10.151Z,7.79
2022-11-17T03:25:10.124Z,7.79
2022-11-17T03:26:10.085Z,7.79
2022-11-17T03:27:10.106Z,7.82
2022-11-17T03:28:10.103Z,7.82
2022-11-17T03:29:10.054Z,7.79
2022-11-17T03:30:10.040Z,7.79
2022-11-17T03:31:10.037Z,7.80
2022-11-17T03:32:10.035Z,7.82
2022-11-17T03:33:10.038Z,7.82
2022-11-17T03:34:10.008Z,7.82
2022-11-17T03:35:10.001Z,7.83
2022-11-17T03:36:09.964Z,7.83
2022-11-17T03:37:09.978Z,7.86
2022-11-17T03:38:09.944Z,7.87
2022-11-17T03:39:09.974Z,7.89
2022-11-17T03:40:09.947Z,7.86
2022-11-17T03:41:09.897Z,7.77
2022-11-17T03:42:09.888Z,7.74
2022-11-17T03:43:09.912Z,7.69
2022-11-17T03:44:09.869Z,7.68
2022-11-17T03:45:09.907Z,7.69
2022-11-17T03:46:09.857Z,7.71
2022-11-17T03:47:09.858Z,7.71
2022-11-17T03:48:09.838Z,7.68
2022-11-17T03:49:09.828Z,7.64
2022-11-17T03:50:09.840Z,7.64
2022-11-17T03:51:09.860Z,7.61
2022-11-17T03:52:09.798Z,7.63
2022-11-17T03:53:09.781Z,7.61
2022-11-17T03:54:09.788Z,7.55
2022-11-17T03:55:09.753Z,7.49
2022-11-17T03:56:09.777Z,7.48
2022-11-17T03:57:09.720Z,7.49
2022-11-17T03:58:09.702Z,7.48
2022-11-17T03:59:09.724Z,7.49
2022-11-17T04:00:09.681Z,7.45
2022-11-17T04:01:09.672Z,7.45
2022-11-17T04:02:09.775Z,7.43
2022-11-17T04:03:09.660Z,7.43
2022-11-17T04:04:09.687Z,7.42
2022-11-17T04:05:09.652Z,7.43
2022-11-17T04:06:09.612Z,7.42
2022-11-17T04:07:09.636Z,7.37
2022-11-17T04:08:09.677Z,7.34
2022-11-17T04:09:09.610Z,7.32
2022-11-17T04:10:09.577Z,7.32
2022-11-17T04:11:09.587Z,7.34
2022-11-17T04:12:09.544Z,7.34
2022-11-17T04:13:09.536Z,7.31
2022-11-17T04:14:09.568Z,7.31
2022-11-17T04:15:09.505Z,7.32
2022-11-17T04:16:09.513Z,7.32
2022-11-17T04:17:09.475Z,7.31
2022-11-17T04:18:09.505Z,7.32
2022-11-17T04:19:09.508Z,7.34
2022-11-17T04:20:09.468Z,7.37
2022-11-17T04:21:09.483Z,7.39
2022-11-17T04:22:09.478Z,7.40
2022-11-17T04:23:09.418Z,7.43
2022-11-17T04:24:09.429Z,7.43
2022-11-17T04:25:09.407Z,7.43
2022-11-17T04:26:09.409Z,7.40
2022-11-17T04:27:09.376Z,7.42
2022-11-17T04:28:09.420Z,7.46
2022-11-17T04:29:09.346Z,7.50
2022-11-17T04:30:09.377Z,7.49
2022-11-17T04:31:09.383Z,7.52
2022-11-17T04:32:09.343Z,7.52
2022-11-17T04:33:09.297Z,7.52
2022-11-17T04:34:09.331Z,7.53
2022-11-17T04:35:09.268Z,7.55
2022-11-17T04:36:09.269Z,7.55
2022-11-17T04:37:09.269Z,7.50
2022-11-17T04:38:09.286Z,7.49
2022-11-17T04:39:09.349Z,7.45
2022-11-17T04:40:09.210Z,7.43
2022-11-17T04:41:09.213Z,7.43
2022-11-17T04:42:09.200Z,7.46
2022-11-17T04:43:09.200Z,7.50
2022-11-17T04:44:09.206Z,7.52
2022-11-17T04:45:09.202Z,7.46
2022-11-17T04:46:09.157Z,7.39
2022-11-17T04:47:09.182Z,7.31
2022-11-17T04:48:09.134Z,7.28
2022-11-17T04:49:09.127Z,7.25
2022-11-17T04:50:09.106Z,7.24
2022-11-17T04:51:09.126Z,7.27
2022-11-17T04:52:09.072Z,7.28
2022-11-17T04:53:09.112Z,7.30
2022-11-17T04:54:09.053Z,7.28
2022-11-17T04:55:09.089Z,7.27
2022-11-17T04:56:09.038Z,7.25
2022-11-17T04:57:09.039Z,7.24
2022-11-17T04:58:10.941Z,7.21
2022-11-17T04:59:09.016Z,7.24
2022-11-17T05:00:09.003Z,7.24
2022-11-17T05:01:09.019Z,7.24
2022-11-17T05:02:09.021Z,7.27
2022-11-17T05:03:08.945Z,7.28
2022-11-17T05:04:08.952Z,7.31
2022-11-17T05:05:08.956Z,7.32
2022-11-17T05:06:08.964Z,7.35
2022-11-17T05:07:09.008Z,7.35
2022-11-17T05:08:08.921Z,7.39
2022-11-17T05:09:08.921Z,7.40
2022-11-17T05:10:08.871Z,7.37
2022-11-17T05:11:08.926Z,7.35
2022-11-17T05:12:08.838Z,7.39
2022-11-17T05:13:08.896Z,7.42
2022-11-17T05:14:08.896Z,7.37
2022-11-17T05:15:08.833Z,7.35
2022-11-17T05:16:08.809Z,7.34
2022-11-17T05:17:10.583Z,7.34
2022-11-17T05:18:08.805Z,7.32
2022-11-17T05:19:08.881Z,7.35
2022-11-17T05:20:08.786Z,7.37
2022-11-17T05:21:08.772Z,7.39
2022-11-17T05:22:08.754Z,7.42
2022-11-17T05:23:08.787Z,7.42
2022-11-17T05:24:08.722Z,7.43
2022-11-17T05:25:08.715Z,7.45
2022-11-17T05:26:08.702Z,7.49
2022-11-17T05:27:08.703Z,7.50
2022-11-17T05:28:08.686Z,7.52
2022-11-17T05:29:08.709Z,7.53
2022-11-17T05:30:08.668Z,7.55
2022-11-17T05:31:08.646Z,7.57
2022-11-17T05:32:08.650Z,7.58
2022-11-17T05:33:08.638Z,7.58
2022-11-17T05:34:08.658Z,7.61
2022-11-17T05:35:08.630Z,7.61
2022-11-17T05:36:08.592Z,7.60
2022-11-17T05:37:08.556Z,7.55
2022-11-17T05:38:08.596Z,7.52
2022-11-17T05:39:08.588Z,7.52
2022-11-17T05:40:08.552Z,7.49
2022-11-17T05:41:08.518Z,7.48
2022-11-17T05:42:08.508Z,7.49
2022-11-17T05:43:08.487Z,7.46
2022-11-17T05:44:08.489Z,7.49
2022-11-17T05:45:08.559Z,7.49
2022-11-17T05:46:08.471Z,7.52
2022-11-17T05:47:08.437Z,7.52
2022-11-17T05:48:08.417Z,7.49
2022-11-17T05:49:08.407Z,7.53
2022-11-17T05:50:08.435Z,7.53
2022-11-17T05:51:08.479Z,7.53
2022-11-17T05:52:08.434Z,7.53
2022-11-17T05:53:08.370Z,7.53
2022-11-17T05:54:08.372Z,7.52
2022-11-17T05:55:08.362Z,7.53
2022-11-17T05:56:08.328Z,7.50
2022-11-17T05:57:08.409Z,7.49
2022-11-17T05:58:08.362Z,7.49
2022-11-17T05:59:08.290Z,7.49
2022-11-17T06:00:08.321Z,7.50
2022-11-17T06:01:08.276Z,7.52
2022-11-17T06:02:08.259Z,7.52
2022-11-17T06:03:08.291Z,7.55
2022-11-17T06:04:08.346Z,7.58
2022-11-17T06:05:08.281Z,7.60
2022-11-17T06:06:08.246Z,7.61
2022-11-17T06:07:08.215Z,7.61
2022-11-17T06:08:08.205Z,7.61
2022-11-17T06:09:08.182Z,7.63
2022-11-17T06:10:08.216Z,7.63
2022-11-17T06:11:08.192Z,7.64
2022-11-17T06:12:08.162Z,7.67
2022-11-17T06:13:08.147Z,7.68
2022-11-17T06:14:08.113Z,7.69
2022-11-17T06:15:08.133Z,7.68
2022-11-17T06:16:08.119Z,7.68
2022-11-17T06:17:08.148Z,7.69
2022-11-17T06:18:08.116Z,7.71
2022-11-17T06:19:08.055Z,7.68
2022-11-17T06:20:08.072Z,7.68
2022-11-17T06:21:08.056Z,7.67
2022-11-17T06:22:13.143Z,7.61
2022-11-17T06:23:09.036Z,7.61
2022-11-17T06:24:08.108Z,7.60
2022-11-17T06:25:08.040Z,7.58
2022-11-17T06:26:08.000Z,7.58
2022-11-17T06:27:08.010Z,7.60
2022-11-17T06:28:08.012Z,7.60
2022-11-17T06:29:07.956Z,7.64
2022-11-17T06:30:07.969Z,7.67
2022-11-17T06:31:08.007Z,7.67
2022-11-17T06:32:07.926Z,7.63
2022-11-17T06:33:07.924Z,7.60
2022-11-17T06:34:07.901Z,7.58
2022-11-17T06:35:07.912Z,7.55
2022-11-17T06:36:07.917Z,7.55
2022-11-17T06:37:07.884Z,7.57
2022-11-17T06:38:07.867Z,7.53
2022-11-17T06:39:07.844Z,7.53
2022-11-17T06:40:07.839Z,7.50
2022-11-17T06:41:11.913Z,7.52
2022-11-17T06:42:07.820Z,7.53
2022-11-17T06:43:07.811Z,7.57
2022-11-17T06:44:07.782Z,7.57
2022-11-17T06:45:07.786Z,7.48
2022-11-17T06:46:07.831Z,7.40
2022-11-17T06:47:07.796Z,7.35
2022-11-17T06:48:07.797Z,7.34
2022-11-17T06:49:07.734Z,7.30
2022-11-17T06:50:07.965Z,7.30
2022-11-17T06:51:07.725Z,7.27
2022-11-17T06:52:07.733Z,7.27
2022-11-17T06:53:07.772Z,7.30
2022-11-17T06:54:07.744Z,7.31
2022-11-17T06:55:07.675Z,7.34
2022-11-17T06:56:07.705Z,7.34
2022-11-17T06:57:07.677Z,7.35
2022-11-17T06:58:07.702Z,7.37
2022-11-17T06:59:07.714Z,7.37
2022-11-17T07:00:07.621Z,7.39
2022-11-17T07:01:07.679Z,7.39
2022-11-17T07:02:07.638Z,7.40
2022-11-17T07:03:07.608Z,7.40
2022-11-17T07:04:07.715Z,7.42
2022-11-17T07:05:07.590Z,7.45
2022-11-17T07:06:07.568Z,7.45
2022-11-17T07:07:07.609Z,7.45
2022-11-17T07:08:08.422Z,7.43
2022-11-17T07:09:07.527Z,7.42
2022-11-17T07:10:07.559Z,7.40
2022-11-17T07:11:07.548Z,7.43
2022-11-17T07:12:07.514Z,7.42
2022-11-17T07:13:07.497Z,7.39
2022-11-17T07:14:07.465Z,7.35
2022-11-17T07:15:07.546Z,7.37
2022-11-17T07:16:07.497Z,7.37
2022-11-17T07:17:07.461Z,7.37
2022-11-17T07:18:07.416Z,7.37
2022-11-17T07:19:07.419Z,7.30
2022-11-17T07:20:07.602Z,7.27
2022-11-17T07:21:08.475Z,7.31
2022-11-17T07:22:07.407Z,7.28
2022-11-17T07:23:07.385Z,7.25
2022-11-17T07:24:07.341Z,7.25
2022-11-17T07:25:07.434Z,7.25
2022-11-17T07:26:07.340Z,7.24
2022-11-17T07:27:07.328Z,7.23
2022-11-17T07:28:07.322Z,7.21
2022-11-17T07:29:07.278Z,7.23
2022-11-17T07:30:07.307Z,7.20
2022-11-17T07:31:07.267Z,7.17
2022-11-17T07:32:07.271Z,7.16
2022-11-17T07:33:07.309Z,7.16
2022-11-17T07:34:08.103Z,7.16
2022-11-17T07:35:07.226Z,7.16
2022-11-17T07:36:07.214Z,7.20
2022-11-17T07:37:07.183Z,7.23
2022-11-17T07:38:07.232Z,7.24
2022-11-17T07:39:07.184Z,7.28
2022-11-17T07:40:07.165Z,7.28
2022-11-17T07:41:07.174Z,7.31
2022-11-17T07:42:07.155Z,7.31
2022-11-17T07:43:07.161Z,7.34
2022-11-17T07:44:07.123Z,7.31
2022-11-17T07:45:07.101Z,7.37
2022-11-17T07:46:07.106Z,7.37
2022-11-17T07:47:07.117Z,7.39
2022-11-17T07:48:07.087Z,7.37
2022-11-17T07:49:07.179Z,7.39
2022-11-17T07:50:07.095Z,7.35
2022-11-17T07:51:07.097Z,7.37
2022-11-17T07:52:07.042Z,7.32
2022-11-17T07:53:07.094Z,7.32
2022-11-17T07:54:06.983Z,7.34
2022-11-17T07:55:08.000Z,7.35
2022-11-17T07:56:06.995Z,7.30
2022-11-17T07:57:06.988Z,7.21
2022-11-17T07:58:06.939Z,7.15
2022-11-17T07:59:06.975Z,7.13
2022-11-17T08:00:07.204Z,7.13
2022-11-17T08:01:06.997Z,7.16
2022-11-17T08:02:06.914Z,7.17
2022-11-17T08:03:07.317Z,7.21
2022-11-17T08:04:07.006Z,7.24
2022-11-17T08:05:06.958Z,7.27
2022-11-17T08:06:06.879Z,7.28
2022-11-17T08:07:06.973Z,7.25
2022-11-17T08:08:06.847Z,7.27
2022-11-17T08:09:06.806Z,7.27
2022-11-17T08:10:06.817Z,7.31
2022-11-17T08:11:06.864Z,7.30
2022-11-17T08:12:06.830Z,7.28
2022-11-17T08:13:06.780Z,7.25
2022-11-17T08:14:06.787Z,7.25
2022-11-17T08:15:06.778Z,7.28
2022-11-17T08:16:06.740Z,7.28
2022-11-17T08:17:06.757Z,7.31
2022-11-17T08:18:06.730Z,7.31
2022-11-17T08:19:06.718Z,7.32
2022-11-17T08:20:06.690Z,7.32
2022-11-17T08:21:07.773Z,7.30
2022-11-17T08:22:06.670Z,7.31
2022-11-17T08:23:06.757Z,7.34
2022-11-17T08:24:06.674Z,7.34
2022-11-17T08:25:06.645Z,7.35
2022-11-17T08:26:06.626Z,7.34
2022-11-17T08:27:06.621Z,7.35
2022-11-17T08:28:06.600Z,7.31
2022-11-17T08:29:06.629Z,7.28
2022-11-17T08:30:06.584Z,7.28
2022-11-17T08:31:06.585Z,7.28
2022-11-17T08:32:06.567Z,7.31
2022-11-17T08:33:06.566Z,7.30
2022-11-17T08:34:06.815Z,7.27
2022-11-17T08:35:06.521Z,7.25
2022-11-17T08:36:06.521Z,7.24
2022-11-17T08:37:06.491Z,7.27
2022-11-17T08:38:06.483Z,7.27
2022-11-17T08:39:07.911Z,7.30
2022-11-17T08:40:06.493Z,7.34
2022-11-17T08:41:06.444Z,7.35
2022-11-17T08:42:06.433Z,7.37
2022-11-17T08:43:06.437Z,7.39
2022-11-17T08:44:06.441Z,7.42
2022-11-17T08:45:06.448Z,7.43
2022-11-17T08:46:06.415Z,7.49
2022-11-17T08:47:06.401Z,7.55
2022-11-17T08:48:06.378Z,7.55
2022-11-17T08:49:06.364Z,7.57
2022-11-17T08:50:06.355Z,7.60
2022-11-17T08:51:06.376Z,7.61
2022-11-17T08:52:06.349Z,7.63
2022-11-17T08:53:06.324Z,7.68
2022-11-17T08:54:06.297Z,7.69
2022-11-17T08:55:06.300Z,7.68
2022-11-17T08:56:06.295Z,7.69
2022-11-17T08:57:06.527Z,7.72
2022-11-17T08:58:06.249Z,7.74
2022-11-17T08:59:06.247Z,7.72
2022-11-17T09:00:06.225Z,7.75
2022-11-17T09:01:06.312Z,7.79
2022-11-17T09:02:06.211Z,7.83
2022-11-17T09:03:06.213Z,7.89
2022-11-17T09:04:06.176Z,7.92
2022-11-17T09:05:06.195Z,7.97
2022-11-17T09:06:06.306Z,8.02
2022-11-17T09:07:06.189Z,8.00
2022-11-17T09:08:37.842Z,8.01
2022-11-17T09:09:07.148Z,8.04
2022-11-17T09:10:06.159Z,8.07
2022-11-17T09:11:06.077Z,8.08
2022-11-17T09:12:06.096Z,8.10
2022-11-17T09:13:06.047Z,8.02
2022-11-17T09:14:06.070Z,8.01
2022-11-17T09:15:06.069Z,8.02
2022-11-17T09:16:06.279Z,8.02
2022-11-17T09:17:06.047Z,8.00
2022-11-17T09:18:06.016Z,7.89
2022-11-17T09:19:05.977Z,7.90
2022-11-17T09:20:05.970Z,7.93
2022-11-17T09:21:06.601Z,8.00
2022-11-17T09:22:06.032Z,8.04
2022-11-17T09:23:05.964Z,8.10
2022-11-17T09:24:05.953Z,8.11
2022-11-17T09:25:11.899Z,8.11
2022-11-17T09:26:06.899Z,8.05
2022-11-17T09:27:05.950Z,8.02
2022-11-17T09:28:05.892Z,8.02
2022-11-17T09:29:06.054Z,8.07
2022-11-17T09:30:05.909Z,8.15
2022-11-17T09:31:05.931Z,8.16
2022-11-17T09:32:05.830Z,8.15
2022-11-17T09:33:05.915Z,8.12
2022-11-17T09:34:06.332Z,8.11
2022-11-17T09:35:05.791Z,8.11
2022-11-17T09:36:05.795Z,8.11
2022-11-17T09:37:05.810Z,8.15
2022-11-17T09:38:05.753Z,8.15
2022-11-17T09:39:06.744Z,8.16
2022-11-17T09:40:05.751Z,8.18
2022-11-17T09:41:05.755Z,8.25
2022-11-17T09:42:05.802Z,8.73
2022-11-17T09:43:05.716Z,8.91
2022-11-17T09:44:05.692Z,8.96
2022-11-17T09:45:05.700Z,8.98
2022-11-17T09:46:07.707Z,8.96
2022-11-17T09:47:05.658Z,8.94
2022-11-17T09:48:33.710Z,8.89
2022-11-17T09:49:06.647Z,8.89
2022-11-17T09:50:05.649Z,8.80
2022-11-17T09:51:05.627Z,8.65
2022-11-17T09:52:05.649Z,8.62
2022-11-17T09:53:05.608Z,8.65
2022-11-17T09:54:05.596Z,8.68
2022-11-17T09:55:05.586Z,8.66
2022-11-17T09:56:05.569Z,8.68
2022-11-17T09:57:05.857Z,8.68
2022-11-17T09:58:05.565Z,8.68
2022-11-17T09:59:05.570Z,8.68
2022-11-17T10:00:05.519Z,8.70
2022-11-17T10:01:05.520Z,8.63
2022-11-17T10:02:05.555Z,8.58
2022-11-17T10:03:05.510Z,8.59
2022-11-17T10:04:05.478Z,8.62
2022-11-17T10:05:05.523Z,8.61
2022-11-17T10:06:05.738Z,8.59
2022-11-17T10:07:05.486Z,8.58
2022-11-17T10:08:05.416Z,8.56
2022-11-17T10:09:05.452Z,8.58
2022-11-17T10:10:05.401Z,8.53
2022-11-17T10:11:05.407Z,8.50
2022-11-17T10:12:05.370Z,8.48
2022-11-17T10:13:05.373Z,8.45
2022-11-17T10:14:05.353Z,8.47
2022-11-17T10:15:05.453Z,8.50
2022-11-17T10:16:05.363Z,8.52
2022-11-17T10:17:05.582Z,8.55
2022-11-17T10:18:05.323Z,8.55
2022-11-17T10:19:05.282Z,8.59
2022-11-17T10:20:05.324Z,8.56
2022-11-17T10:21:05.269Z,8.58
2022-11-17T10:22:05.475Z,8.63
2022-11-17T10:23:05.246Z,8.68
2022-11-17T10:24:12.348Z,8.68
2022-11-17T10:25:05.233Z,8.63
2022-11-17T10:26:05.194Z,8.62
2022-11-17T10:27:05.268Z,8.59
2022-11-17T10:28:05.202Z,8.55
2022-11-17T10:29:08.461Z,8.55
2022-11-17T10:30:05.165Z,8.56
2022-11-17T10:31:05.178Z,8.53
2022-11-17T10:32:05.172Z,8.53
2022-11-17T10:33:05.178Z,8.55
2022-11-17T10:34:05.113Z,8.55
2022-11-17T10:35:05.112Z,8.53
2022-11-17T10:36:05.149Z,8.58
2022-11-17T10:37:05.106Z,8.63
2022-11-17T10:38:05.101Z,8.71
2022-11-17T10:39:05.340Z,8.80
2022-11-17T10:40:05.038Z,8.95
2022-11-17T10:41:05.074Z,9.08
2022-11-17T10:42:05.056Z,9.17
2022-11-17T10:43:05.020Z,9.18
2022-11-17T10:44:05.075Z,9.15
2022-11-17T10:45:05.010Z,9.08
2022-11-17T10:46:04.993Z,9.08
2022-11-17T10:47:05.047Z,9.04
2022-11-17T10:48:04.962Z,8.99
2022-11-17T10:49:05.215Z,8.91
2022-11-17T10:50:05.007Z,8.84
2022-11-17T10:51:04.966Z,8.83
2022-11-17T10:52:04.931Z,8.87
2022-11-17T10:53:09.969Z,8.98
2022-11-17T10:54:05.880Z,9.10
2022-11-17T10:55:04.876Z,9.17
2022-11-17T10:56:04.883Z,9.24
2022-11-17T10:57:04.891Z,9.24
2022-11-17T10:58:04.830Z,9.24
2022-11-17T10:59:04.856Z,9.28
2022-11-17T11:00:04.813Z,9.28
2022-11-17T11:01:04.904Z,9.23
2022-11-17T11:02:04.844Z,9.21
2022-11-17T11:03:04.805Z,9.17
2022-11-17T11:04:04.763Z,9.02
2022-11-17T11:05:04.823Z,8.96
2022-11-17T11:06:04.787Z,8.96
2022-11-17T11:07:04.841Z,8.98
2022-11-17T11:08:04.743Z,8.95
2022-11-17T11:09:04.708Z,8.92
2022-11-17T11:10:04.745Z,8.95
2022-11-17T11:11:08.470Z,8.94
2022-11-17T11:12:04.944Z,8.92
2022-11-17T11:13:04.673Z,8.91
2022-11-17T11:14:04.657Z,8.91
2022-11-17T11:15:04.636Z,8.95
2022-11-17T11:16:04.645Z,8.96
2022-11-17T11:17:04.685Z,8.96
2022-11-17T11:18:05.935Z,8.99
2022-11-17T11:19:04.595Z,9.02
2022-11-17T11:20:04.596Z,9.05
2022-11-17T11:21:04.584Z,9.05
2022-11-17T11:22:04.608Z,9.11
2022-11-17T11:23:04.557Z,9.13
2022-11-17T11:24:04.587Z,9.11
2022-11-17T11:25:04.570Z,9.13
2022-11-17T11:26:04.526Z,9.14
2022-11-17T11:27:04.532Z,9.18
2022-11-17T11:28:04.488Z,9.18
2022-11-17T11:29:04.479Z,9.24
2022-11-17T11:30:04.476Z,9.31
2022-11-17T11:31:04.483Z,9.35
2022-11-17T11:32:04.495Z,9.36
2022-11-17T11:33:04.446Z,9.38
2022-11-17T11:34:04.409Z,9.38
2022-11-17T11:35:04.399Z,9.40
2022-11-17T11:36:04.468Z,9.50
2022-11-17T11:37:04.431Z,9.54
2022-11-17T11:38:04.392Z,9.58
2022-11-17T11:39:04.380Z,9.68
2022-11-17T11:40:04.340Z,9.78
2022-11-17T11:41:04.345Z,9.76
2022-11-17T11:42:07.944Z,9.71
2022-11-17T11:43:04.360Z,9.66
2022-11-17T11:44:04.348Z,9.65
2022-11-17T11:45:04.303Z,9.66
2022-11-17T11:46:04.272Z,9.60
2022-11-17T11:47:04.262Z,9.56
2022-11-17T11:48:04.267Z,9.57
2022-11-17T11:49:04.247Z,9.58
2022-11-17T11:50:04.263Z,9.56
2022-11-17T11:51:04.233Z,9.61
2022-11-17T11:52:04.224Z,9.71
2022-11-17T11:53:04.249Z,9.76
2022-11-17T11:54:04.215Z,9.86
2022-11-17T11:55:04.193Z,9.89
2022-11-17T11:56:04.195Z,9.91
2022-11-17T11:57:04.211Z,9.91
2022-11-17T11:58:04.180Z,9.97
2022-11-17T11:59:04.162Z,10.04
2022-11-17T12:00:04.981Z,10.09
2022-11-17T12:01:04.136Z,10.14
2022-11-17T12:02:04.404Z,10.15
2022-11-17T12:03:04.190Z,10.22
2022-11-17T12:04:04.078Z,10.23
2022-11-17T12:05:04.070Z,10.25
2022-11-17T12:06:04.084Z,10.25
2022-11-17T12:07:04.092Z,10.23
2022-11-17T12:08:10.136Z,10.27
2022-11-17T12:09:05.020Z,10.26
2022-11-17T12:10:07.038Z,10.25
2022-11-17T12:11:04.039Z,10.22
2022-11-17T12:12:03.982Z,10.20
2022-11-17T12:13:03.959Z,10.18
2022-11-17T12:14:04.016Z,10.20
2022-11-17T12:15:04.006Z,10.20
2022-11-17T12:16:03.932Z,10.23
2022-11-17T12:17:03.919Z,10.25
2022-11-17T12:18:03.992Z,10.22
2022-11-17T12:19:03.926Z,10.18
2022-11-17T12:20:10.500Z,10.20
2022-11-17T12:21:05.038Z,10.22
2022-11-17T12:22:03.890Z,10.25
2022-11-17T12:23:03.905Z,10.26
2022-11-17T12:24:03.873Z,10.30
2022-11-17T12:25:03.836Z,10.34
2022-11-17T12:26:03.824Z,10.40
2022-11-17T12:27:03.802Z,10.41
2022-11-17T12:28:03.844Z,10.45
2022-11-17T12:29:03.817Z,10.47
2022-11-17T12:30:03.798Z,10.53
2022-11-17T12:31:09.464Z,10.59
2022-11-17T12:32:04.763Z,10.63
2022-11-17T12:33:03.788Z,10.67
2022-11-17T12:34:03.738Z,10.68
2022-11-17T12:35:03.729Z,10.78
2022-11-17T12:36:03.747Z,10.84
2022-11-17T12:37:03.697Z,10.94
2022-11-17T12:38:03.711Z,10.97
2022-11-17T12:39:03.705Z,10.96
2022-11-17T12:40:03.657Z,10.99
2022-11-17T12:41:03.636Z,11.02
2022-11-17T12:42:03.640Z,11.03
2022-11-17T12:43:03.636Z,11.03
2022-11-17T12:44:03.866Z,11.10
2022-11-17T12:45:04.097Z,11.15
2022-11-17T12:46:03.636Z,11.19
2022-11-17T12:47:03.606Z,11.27
2022-11-17T12:48:26.793Z,11.21
2022-11-17T12:49:04.664Z,11.25
2022-11-17T12:50:03.559Z,11.24
2022-11-17T12:51:05.195Z,11.21
2022-11-17T12:52:03.747Z,11.11
2022-11-17T12:53:03.542Z,11.10
2022-11-17T12:54:03.612Z,11.09
2022-11-17T12:55:03.499Z,11.04
2022-11-17T12:56:03.493Z,11.03
2022-11-17T12:57:03.570Z,11.03
2022-11-17T12:58:07.687Z,11.02
2022-11-17T12:59:04.554Z,11.00
2022-11-17T13:00:03.424Z,11.03
2022-11-17T13:01:03.487Z,11.03
2022-11-17T13:02:03.433Z,11.03
2022-11-17T13:03:03.467Z,11.06
2022-11-17T13:04:03.445Z,11.03
2022-11-17T13:05:03.434Z,11.04
2022-11-17T13:06:28.179Z,11.00
2022-11-17T13:07:04.455Z,11.00
2022-11-17T13:08:03.323Z,10.97
2022-11-17T13:09:03.312Z,10.96
2022-11-17T13:10:06.380Z,10.96
2022-11-17T13:11:03.323Z,10.96
2022-11-17T13:12:03.286Z,10.96
2022-11-17T13:13:03.324Z,10.92
2022-11-17T13:14:03.278Z,10.97
2022-11-17T13:15:03.307Z,11.03